sensor_id;sensor_type;location;lat;lon;timestamp;P1;durP1;ratioP1;P2;durP2;ratioP2
42702;SDS011;28341;52.064;4.920;2022-12-01T00:00:23;148.43;;;59.45;;
42702;SDS011;28341;52.064;4.920;2022-12-01T00:02:30;200.68;;;68.38;;
42702;SDS011;28341;52.064;4.920;2022-12-01T00:04:34;207.23;;;70.43;;
42702;SDS011;28341;52.064;4.920;2022-12-01T00:06:39;225.43;;;74.65;;
42702;SDS011;28341;52.064;4.920;2022-12-01T00:08:43;199.70;;;69.35;;
42702;SDS011;28341;52.064;4.920;2022-12-01T00:11:02;209.98;;;71.07;;
42702;SDS011;28341;52.064;4.920;2022-12-01T00:13:08;236.07;;;75.68;;
42702;SDS011;28341;52.064;4.920;2022-12-01T00:15:13;240.98;;;76.38;;
42702;SDS011;28341;52.064;4.920;2022-12-01T00:17:17;248.82;;;80.82;;
42702;SDS011;28341;52.064;4.920;2022-12-01T00:19:25;223.35;;;76.15;;
42702;SDS011;28341;52.064;4.920;2022-12-01T00:21:30;210.93;;;69.72;;
42702;SDS011;28341;52.064;4.920;2022-12-01T00:23:35;222.90;;;70.75;;
42702;SDS011;28341;52.064;4.920;2022-12-01T00:25:39;237.35;;;75.72;;
42702;SDS011;28341;52.064;4.920;2022-12-01T00:27:46;202.25;;;67.53;;
42702;SDS011;28341;52.064;4.920;2022-12-01T00:29:51;203.70;;;68.28;;
42702;SDS011;28341;52.064;4.920;2022-12-01T00:31:55;199.98;;;68.25;;
42702;SDS011;28341;52.064;4.920;2022-12-01T00:34:00;235.63;;;75.95;;
42702;SDS011;28341;52.064;4.920;2022-12-01T00:36:08;225.93;;;71.82;;
42702;SDS011;28341;52.064;4.920;2022-12-01T00:38:12;222.82;;;73.63;;
42702;SDS011;28341;52.064;4.920;2022-12-01T00:40:17;230.52;;;72.90;;
42702;SDS011;28341;52.064;4.920;2022-12-01T00:42:21;206.75;;;67.57;;
42702;SDS011;28341;52.064;4.920;2022-12-01T00:44:26;183.20;;;64.95;;
42702;SDS011;28341;52.064;4.920;2022-12-01T00:46:30;215.73;;;69.50;;
42702;SDS011;28341;52.064;4.920;2022-12-01T00:48:35;211.75;;;69.75;;
42702;SDS011;28341;52.064;4.920;2022-12-01T00:50:39;208.95;;;68.72;;
42702;SDS011;28341;52.064;4.920;2022-12-01T00:52:46;200.10;;;67.80;;
42702;SDS011;28341;52.064;4.920;2022-12-01T00:54:51;211.13;;;68.53;;
42702;SDS011;28341;52.064;4.920;2022-12-01T00:56:56;174.73;;;63.55;;
42702;SDS011;28341;52.064;4.920;2022-12-01T00:59:00;192.38;;;67.43;;
42702;SDS011;28341;52.064;4.920;2022-12-01T01:01:05;191.15;;;64.13;;
42702;SDS011;28341;52.064;4.920;2022-12-01T01:03:09;184.30;;;63.05;;
42702;SDS011;28341;52.064;4.920;2022-12-01T01:05:14;191.20;;;65.68;;
42702;SDS011;28341;52.064;4.920;2022-12-01T01:07:19;163.65;;;59.03;;
42702;SDS011;28341;52.064;4.920;2022-12-01T01:09:26;170.13;;;60.25;;
42702;SDS011;28341;52.064;4.920;2022-12-01T01:11:30;173.20;;;59.88;;
42702;SDS011;28341;52.064;4.920;2022-12-01T01:13:35;183.90;;;63.40;;
42702;SDS011;28341;52.064;4.920;2022-12-01T01:15:40;186.18;;;65.95;;
42702;SDS011;28341;52.064;4.920;2022-12-01T01:17:44;188.85;;;65.43;;
42702;SDS011;28341;52.064;4.920;2022-12-01T01:19:49;180.98;;;62.83;;
42702;SDS011;28341;52.064;4.920;2022-12-01T01:21:55;186.07;;;63.08;;
42702;SDS011;28341;52.064;4.920;2022-12-01T01:23:59;176.77;;;63.58;;
42702;SDS011;28341;52.064;4.920;2022-12-01T01:26:07;193.60;;;66.57;;
42702;SDS011;28341;52.064;4.920;2022-12-01T01:28:15;206.55;;;68.50;;
42702;SDS011;28341;52.064;4.920;2022-12-01T01:30:19;201.75;;;66.30;;
42702;SDS011;28341;52.064;4.920;2022-12-01T01:32:24;190.45;;;68.40;;
42702;SDS011;28341;52.064;4.920;2022-12-01T01:34:28;207.77;;;67.85;;
42702;SDS011;28341;52.064;4.920;2022-12-01T01:36:33;196.15;;;66.72;;
42702;SDS011;28341;52.064;4.920;2022-12-01T01:38:37;176.95;;;62.28;;
42702;SDS011;28341;52.064;4.920;2022-12-01T01:40:42;214.88;;;68.95;;
42702;SDS011;28341;52.064;4.920;2022-12-01T01:42:49;179.52;;;66.25;;
42702;SDS011;28341;52.064;4.920;2022-12-01T01:44:54;176.98;;;62.65;;
42702;SDS011;28341;52.064;4.920;2022-12-01T01:47:00;191.90;;;65.15;;
42702;SDS011;28341;52.064;4.920;2022-12-01T01:49:06;172.63;;;60.20;;
42702;SDS011;28341;52.064;4.920;2022-12-01T01:51:13;192.77;;;66.47;;
42702;SDS011;28341;52.064;4.920;2022-12-01T01:53:19;213.82;;;69.72;;
42702;SDS011;28341;52.064;4.920;2022-12-01T01:55:23;203.57;;;69.32;;
42702;SDS011;28341;52.064;4.920;2022-12-01T01:57:29;192.40;;;68.85;;
42702;SDS011;28341;52.064;4.920;2022-12-01T01:59:38;205.07;;;69.60;;
42702;SDS011;28341;52.064;4.920;2022-12-01T02:01:47;218.90;;;72.80;;
42702;SDS011;28341;52.064;4.920;2022-12-01T02:04:05;219.93;;;72.72;;
42702;SDS011;28341;52.064;4.920;2022-12-01T02:06:10;224.18;;;72.13;;
42702;SDS011;28341;52.064;4.920;2022-12-01T02:08:15;220.35;;;71.30;;
42702;SDS011;28341;52.064;4.920;2022-12-01T02:10:19;224.27;;;73.80;;
42702;SDS011;28341;52.064;4.920;2022-12-01T02:15:02;200.02;;;68.25;;
42702;SDS011;28341;52.064;4.920;2022-12-01T02:17:21;215.57;;;70.15;;
42702;SDS011;28341;52.064;4.920;2022-12-01T02:19:40;200.95;;;70.05;;
42702;SDS011;28341;52.064;4.920;2022-12-01T02:21:58;216.05;;;69.82;;
42702;SDS011;28341;52.064;4.920;2022-12-01T02:27:17;212.90;;;69.43;;
42702;SDS011;28341;52.064;4.920;2022-12-01T02:29:35;232.23;;;72.57;;
42702;SDS011;28341;52.064;4.920;2022-12-01T02:32:02;206.25;;;69.72;;
42702;SDS011;28341;52.064;4.920;2022-12-01T02:34:16;191.57;;;66.43;;
42702;SDS011;28341;52.064;4.920;2022-12-01T02:36:27;188.68;;;64.65;;
42702;SDS011;28341;52.064;4.920;2022-12-01T02:38:38;214.43;;;72.18;;
42702;SDS011;28341;52.064;4.920;2022-12-01T02:40:48;206.02;;;70.57;;
42702;SDS011;28341;52.064;4.920;2022-12-01T02:42:59;217.35;;;72.60;;
42702;SDS011;28341;52.064;4.920;2022-12-01T02:45:08;218.15;;;72.25;;
42702;SDS011;28341;52.064;4.920;2022-12-01T02:47:19;207.13;;;68.45;;
42702;SDS011;28341;52.064;4.920;2022-12-01T02:49:25;223.45;;;72.95;;
42702;SDS011;28341;52.064;4.920;2022-12-01T02:51:33;211.93;;;71.47;;
42702;SDS011;28341;52.064;4.920;2022-12-01T02:53:38;218.07;;;73.38;;
42702;SDS011;28341;52.064;4.920;2022-12-01T02:55:47;219.98;;;70.78;;
42702;SDS011;28341;52.064;4.920;2022-12-01T02:57:52;211.02;;;72.22;;
42702;SDS011;28341;52.064;4.920;2022-12-01T02:59:56;195.32;;;70.30;;
42702;SDS011;28341;52.064;4.920;2022-12-01T03:02:03;212.77;;;72.15;;
42702;SDS011;28341;52.064;4.920;2022-12-01T03:06:51;203.55;;;69.38;;
42702;SDS011;28341;52.064;4.920;2022-12-01T03:09:04;230.75;;;74.97;;
42702;SDS011;28341;52.064;4.920;2022-12-01T03:11:20;211.73;;;71.95;;
42702;SDS011;28341;52.064;4.920;2022-12-01T03:13:36;222.73;;;73.82;;
42702;SDS011;28341;52.064;4.920;2022-12-01T03:15:45;232.93;;;74.00;;
42702;SDS011;28341;52.064;4.920;2022-12-01T03:17:59;223.75;;;73.05;;
42702;SDS011;28341;52.064;4.920;2022-12-01T03:20:17;225.38;;;71.03;;
42702;SDS011;28341;52.064;4.920;2022-12-01T03:22:25;187.05;;;66.97;;
42702;SDS011;28341;52.064;4.920;2022-12-01T03:24:33;202.63;;;69.97;;
42702;SDS011;28341;52.064;4.920;2022-12-01T03:26:39;228.02;;;75.60;;
42702;SDS011;28341;52.064;4.920;2022-12-01T03:28:47;195.23;;;66.97;;
42702;SDS011;28341;52.064;4.920;2022-12-01T03:30:57;161.45;;;60.22;;
42702;SDS011;28341;52.064;4.920;2022-12-01T03:33:07;188.35;;;62.65;;
42702;SDS011;28341;52.064;4.920;2022-12-01T03:35:18;174.13;;;62.90;;
42702;SDS011;28341;52.064;4.920;2022-12-01T03:37:27;167.40;;;60.97;;
42702;SDS011;28341;52.064;4.920;2022-12-01T03:39:35;195.73;;;67.43;;
42702;SDS011;28341;52.064;4.920;2022-12-01T03:41:42;231.75;;;73.32;;
42702;SDS011;28341;52.064;4.920;2022-12-01T03:43:54;248.73;;;74.38;;
42702;SDS011;28341;52.064;4.920;2022-12-01T03:46:03;245.30;;;75.05;;
42702;SDS011;28341;52.064;4.920;2022-12-01T03:48:11;224.38;;;69.65;;
42702;SDS011;28341;52.064;4.920;2022-12-01T03:50:18;206.00;;;68.95;;
42702;SDS011;28341;52.064;4.920;2022-12-01T03:52:26;221.20;;;69.32;;
42702;SDS011;28341;52.064;4.920;2022-12-01T03:54:41;214.95;;;68.65;;
42702;SDS011;28341;52.064;4.920;2022-12-01T03:56:51;233.13;;;70.53;;
42702;SDS011;28341;52.064;4.920;2022-12-01T03:58:59;247.18;;;73.90;;
42702;SDS011;28341;52.064;4.920;2022-12-01T04:01:04;237.15;;;72.95;;
42702;SDS011;28341;52.064;4.920;2022-12-01T04:03:15;221.27;;;71.65;;
42702;SDS011;28341;52.064;4.920;2022-12-01T04:05:23;218.13;;;71.63;;
42702;SDS011;28341;52.064;4.920;2022-12-01T04:07:29;219.75;;;70.22;;
42702;SDS011;28341;52.064;4.920;2022-12-01T04:09:33;207.93;;;67.65;;
42702;SDS011;28341;52.064;4.920;2022-12-01T04:11:38;217.88;;;69.03;;
42702;SDS011;28341;52.064;4.920;2022-12-01T04:13:54;234.82;;;71.90;;
42702;SDS011;28341;52.064;4.920;2022-12-01T04:15:59;228.48;;;71.63;;
42702;SDS011;28341;52.064;4.920;2022-12-01T04:18:04;238.80;;;73.20;;
42702;SDS011;28341;52.064;4.920;2022-12-01T04:20:09;228.68;;;70.50;;
42702;SDS011;28341;52.064;4.920;2022-12-01T04:22:17;230.32;;;70.30;;
42702;SDS011;28341;52.064;4.920;2022-12-01T04:24:22;207.07;;;69.78;;
42702;SDS011;28341;52.064;4.920;2022-12-01T04:26:27;220.93;;;68.80;;
42702;SDS011;28341;52.064;4.920;2022-12-01T04:28:32;215.98;;;69.88;;
42702;SDS011;28341;52.064;4.920;2022-12-01T04:30:36;205.55;;;65.72;;
42702;SDS011;28341;52.064;4.920;2022-12-01T04:32:41;213.52;;;68.82;;
42702;SDS011;28341;52.064;4.920;2022-12-01T04:34:46;183.77;;;64.53;;
42702;SDS011;28341;52.064;4.920;2022-12-01T04:36:50;214.13;;;67.28;;
42702;SDS011;28341;52.064;4.920;2022-12-01T04:38:57;203.27;;;67.07;;
42702;SDS011;28341;52.064;4.920;2022-12-01T04:41:06;224.05;;;69.68;;
42702;SDS011;28341;52.064;4.920;2022-12-01T04:43:11;213.77;;;69.32;;
42702;SDS011;28341;52.064;4.920;2022-12-01T04:45:16;227.80;;;68.78;;
42702;SDS011;28341;52.064;4.920;2022-12-01T04:47:20;206.00;;;67.55;;
42702;SDS011;28341;52.064;4.920;2022-12-01T04:49:25;210.98;;;69.03;;
42702;SDS011;28341;52.064;4.920;2022-12-01T04:51:29;212.45;;;67.95;;
42702;SDS011;28341;52.064;4.920;2022-12-01T04:53:34;200.65;;;65.20;;
42702;SDS011;28341;52.064;4.920;2022-12-01T04:55:41;194.98;;;63.83;;
42702;SDS011;28341;52.064;4.920;2022-12-01T04:57:46;198.52;;;64.20;;
42702;SDS011;28341;52.064;4.920;2022-12-01T04:59:50;167.95;;;60.42;;
42702;SDS011;28341;52.064;4.920;2022-12-01T05:01:55;175.07;;;59.83;;
42702;SDS011;28341;52.064;4.920;2022-12-01T05:04:01;180.55;;;60.30;;
42702;SDS011;28341;52.064;4.920;2022-12-01T05:06:07;192.48;;;64.95;;
42702;SDS011;28341;52.064;4.920;2022-12-01T05:08:14;217.43;;;69.22;;
42702;SDS011;28341;52.064;4.920;2022-12-01T05:10:18;230.43;;;69.63;;
42702;SDS011;28341;52.064;4.920;2022-12-01T05:12:25;211.25;;;65.63;;
42702;SDS011;28341;52.064;4.920;2022-12-01T05:14:30;211.30;;;65.28;;
42702;SDS011;28341;52.064;4.920;2022-12-01T05:16:34;207.25;;;65.65;;
42702;SDS011;28341;52.064;4.920;2022-12-01T05:18:39;205.55;;;65.65;;
42702;SDS011;28341;52.064;4.920;2022-12-01T05:20:44;243.57;;;70.88;;
42702;SDS011;28341;52.064;4.920;2022-12-01T05:25:01;199.55;;;62.95;;
42702;SDS011;28341;52.064;4.920;2022-12-01T05:27:06;224.55;;;70.18;;
42702;SDS011;28341;52.064;4.920;2022-12-01T05:29:13;242.00;;;71.38;;
42702;SDS011;28341;52.064;4.920;2022-12-01T05:31:17;233.75;;;70.43;;
42702;SDS011;28341;52.064;4.920;2022-12-01T05:33:22;240.27;;;71.38;;
42702;SDS011;28341;52.064;4.920;2022-12-01T05:35:28;241.32;;;72.43;;
42702;SDS011;28341;52.064;4.920;2022-12-01T05:37:32;207.95;;;66.90;;
42702;SDS011;28341;52.064;4.920;2022-12-01T05:39:37;209.27;;;65.95;;
42702;SDS011;28341;52.064;4.920;2022-12-01T05:41:41;217.80;;;66.90;;
42702;SDS011;28341;52.064;4.920;2022-12-01T05:43:45;255.55;;;70.97;;
42702;SDS011;28341;52.064;4.920;2022-12-01T05:45:53;251.05;;;70.65;;
42702;SDS011;28341;52.064;4.920;2022-12-01T05:47:57;231.25;;;70.72;;
42702;SDS011;28341;52.064;4.920;2022-12-01T05:50:03;245.43;;;71.57;;
42702;SDS011;28341;52.064;4.920;2022-12-01T05:52:09;253.18;;;72.57;;
42702;SDS011;28341;52.064;4.920;2022-12-01T05:54:14;233.52;;;70.00;;
42702;SDS011;28341;52.064;4.920;2022-12-01T05:56:18;241.73;;;71.10;;
42702;SDS011;28341;52.064;4.920;2022-12-01T05:58:23;200.40;;;65.75;;
42702;SDS011;28341;52.064;4.920;2022-12-01T06:00:27;243.75;;;71.18;;
42702;SDS011;28341;52.064;4.920;2022-12-01T06:02:35;254.63;;;72.93;;
42702;SDS011;28341;52.064;4.920;2022-12-01T06:04:39;248.15;;;71.10;;
42702;SDS011;28341;52.064;4.920;2022-12-01T06:06:44;238.10;;;69.55;;
42702;SDS011;28341;52.064;4.920;2022-12-01T06:08:48;245.60;;;71.40;;
42702;SDS011;28341;52.064;4.920;2022-12-01T06:10:53;226.93;;;70.95;;
42702;SDS011;28341;52.064;4.920;2022-12-01T06:12:57;243.50;;;70.18;;
42702;SDS011;28341;52.064;4.920;2022-12-01T06:15:02;234.50;;;69.28;;
42702;SDS011;28341;52.064;4.920;2022-12-01T06:17:07;241.48;;;71.80;;
42702;SDS011;28341;52.064;4.920;2022-12-01T06:19:14;222.38;;;65.70;;
42702;SDS011;28341;52.064;4.920;2022-12-01T06:21:19;218.43;;;68.13;;
42702;SDS011;28341;52.064;4.920;2022-12-01T06:23:23;227.13;;;66.03;;
42702;SDS011;28341;52.064;4.920;2022-12-01T06:25:28;231.60;;;70.57;;
42702;SDS011;28341;52.064;4.920;2022-12-01T06:27:32;228.05;;;67.75;;
42702;SDS011;28341;52.064;4.920;2022-12-01T06:29:37;219.30;;;66.45;;
42702;SDS011;28341;52.064;4.920;2022-12-01T06:31:41;216.63;;;65.72;;
42702;SDS011;28341;52.064;4.920;2022-12-01T06:33:45;199.25;;;63.50;;
42702;SDS011;28341;52.064;4.920;2022-12-01T06:35:58;211.57;;;64.13;;
42702;SDS011;28341;52.064;4.920;2022-12-01T06:38:03;226.52;;;68.25;;
42702;SDS011;28341;52.064;4.920;2022-12-01T06:40:08;221.77;;;65.32;;
42702;SDS011;28341;52.064;4.920;2022-12-01T06:42:14;216.93;;;66.25;;
42702;SDS011;28341;52.064;4.920;2022-12-01T06:44:19;236.18;;;69.32;;
42702;SDS011;28341;52.064;4.920;2022-12-01T06:46:23;236.80;;;65.85;;
42702;SDS011;28341;52.064;4.920;2022-12-01T06:48:28;249.20;;;68.10;;
42702;SDS011;28341;52.064;4.920;2022-12-01T06:50:33;250.77;;;70.80;;
42702;SDS011;28341;52.064;4.920;2022-12-01T06:52:40;249.68;;;69.15;;
42702;SDS011;28341;52.064;4.920;2022-12-01T06:54:45;266.58;;;74.85;;
42702;SDS011;28341;52.064;4.920;2022-12-01T06:56:49;257.08;;;71.10;;
42702;SDS011;28341;52.064;4.920;2022-12-01T06:58:54;265.52;;;72.63;;
42702;SDS011;28341;52.064;4.920;2022-12-01T07:00:59;266.77;;;75.55;;
42702;SDS011;28341;52.064;4.920;2022-12-01T07:03:09;293.70;;;76.60;;
42702;SDS011;28341;52.064;4.920;2022-12-01T07:05:13;285.90;;;76.40;;
42702;SDS011;28341;52.064;4.920;2022-12-01T07:07:18;287.20;;;76.80;;
42702;SDS011;28341;52.064;4.920;2022-12-01T07:09:25;267.98;;;73.63;;
42702;SDS011;28341;52.064;4.920;2022-12-01T07:11:29;280.20;;;75.25;;
42702;SDS011;28341;52.064;4.920;2022-12-01T07:13:35;276.48;;;76.78;;
42702;SDS011;28341;52.064;4.920;2022-12-01T07:15:40;266.90;;;73.72;;
42702;SDS011;28341;52.064;4.920;2022-12-01T07:17:44;263.65;;;73.00;;
42702;SDS011;28341;52.064;4.920;2022-12-01T07:19:49;245.45;;;70.80;;
42702;SDS011;28341;52.064;4.920;2022-12-01T07:21:56;246.30;;;68.75;;
42702;SDS011;28341;52.064;4.920;2022-12-01T07:24:00;252.98;;;71.70;;
42702;SDS011;28341;52.064;4.920;2022-12-01T07:26:09;253.60;;;72.15;;
42702;SDS011;28341;52.064;4.920;2022-12-01T07:28:15;245.05;;;70.10;;
42702;SDS011;28341;52.064;4.920;2022-12-01T07:30:19;241.30;;;69.30;;
42702;SDS011;28341;52.064;4.920;2022-12-01T07:32:24;252.77;;;68.60;;
42702;SDS011;28341;52.064;4.920;2022-12-01T07:34:28;251.20;;;72.38;;
42702;SDS011;28341;52.064;4.920;2022-12-01T07:36:32;259.05;;;70.10;;
42702;SDS011;28341;52.064;4.920;2022-12-01T07:38:37;264.90;;;72.25;;
42702;SDS011;28341;52.064;4.920;2022-12-01T07:40:42;253.32;;;71.28;;
42702;SDS011;28341;52.064;4.920;2022-12-01T07:42:49;257.42;;;71.55;;
42702;SDS011;28341;52.064;4.920;2022-12-01T07:44:54;249.27;;;67.82;;
42702;SDS011;28341;52.064;4.920;2022-12-01T07:46:58;244.20;;;69.03;;
42702;SDS011;28341;52.064;4.920;2022-12-01T07:49:03;250.38;;;72.35;;
42702;SDS011;28341;52.064;4.920;2022-12-01T07:51:11;252.25;;;71.70;;
42702;SDS011;28341;52.064;4.920;2022-12-01T07:53:18;244.05;;;70.85;;
42702;SDS011;28341;52.064;4.920;2022-12-01T07:55:22;245.85;;;69.28;;
42702;SDS011;28341;52.064;4.920;2022-12-01T07:57:27;254.02;;;69.70;;
42702;SDS011;28341;52.064;4.920;2022-12-01T07:59:33;248.75;;;69.00;;
42702;SDS011;28341;52.064;4.920;2022-12-01T08:01:38;258.25;;;70.07;;
42702;SDS011;28341;52.064;4.920;2022-12-01T08:03:43;251.27;;;69.25;;
42702;SDS011;28341;52.064;4.920;2022-12-01T08:05:54;273.45;;;72.90;;
42702;SDS011;28341;52.064;4.920;2022-12-01T08:07:59;272.20;;;73.47;;
42702;SDS011;28341;52.064;4.920;2022-12-01T08:10:04;265.38;;;72.30;;
42702;SDS011;28341;52.064;4.920;2022-12-01T08:12:09;251.32;;;70.65;;
42702;SDS011;28341;52.064;4.920;2022-12-01T08:14:13;260.20;;;73.40;;
42702;SDS011;28341;52.064;4.920;2022-12-01T08:16:21;266.25;;;70.93;;
42702;SDS011;28341;52.064;4.920;2022-12-01T08:18:27;263.27;;;74.28;;
42702;SDS011;28341;52.064;4.920;2022-12-01T08:20:31;273.38;;;74.43;;
42702;SDS011;28341;52.064;4.920;2022-12-01T08:22:36;288.17;;;74.63;;
42702;SDS011;28341;52.064;4.920;2022-12-01T08:24:40;281.83;;;77.97;;
42702;SDS011;28341;52.064;4.920;2022-12-01T08:26:44;261.90;;;74.95;;
42702;SDS011;28341;52.064;4.920;2022-12-01T08:28:49;261.50;;;74.80;;
42702;SDS011;28341;52.064;4.920;2022-12-01T08:30:53;263.88;;;73.32;;
42702;SDS011;28341;52.064;4.920;2022-12-01T08:33:01;274.63;;;75.90;;
42702;SDS011;28341;52.064;4.920;2022-12-01T08:35:05;264.45;;;75.10;;
42702;SDS011;28341;52.064;4.920;2022-12-01T08:37:11;263.30;;;75.60;;
42702;SDS011;28341;52.064;4.920;2022-12-01T08:39:15;256.67;;;76.72;;
42702;SDS011;28341;52.064;4.920;2022-12-01T08:41:19;256.60;;;75.22;;
42702;SDS011;28341;52.064;4.920;2022-12-01T08:43:24;261.95;;;73.82;;
42702;SDS011;28341;52.064;4.920;2022-12-01T08:45:29;239.38;;;70.93;;
42702;SDS011;28341;52.064;4.920;2022-12-01T08:47:34;254.48;;;71.63;;
42702;SDS011;28341;52.064;4.920;2022-12-01T08:49:40;259.25;;;73.88;;
42702;SDS011;28341;52.064;4.920;2022-12-01T08:51:45;251.60;;;69.82;;
42702;SDS011;28341;52.064;4.920;2022-12-01T08:53:49;271.33;;;72.57;;
42702;SDS011;28341;52.064;4.920;2022-12-01T08:55:54;231.35;;;68.43;;
42702;SDS011;28341;52.064;4.920;2022-12-01T08:58:00;249.90;;;72.28;;
42702;SDS011;28341;52.064;4.920;2022-12-01T09:00:07;243.80;;;72.50;;
42702;SDS011;28341;52.064;4.920;2022-12-01T09:02:13;251.30;;;73.13;;
42702;SDS011;28341;52.064;4.920;2022-12-01T09:04:18;239.93;;;70.90;;
42702;SDS011;28341;52.064;4.920;2022-12-01T09:06:26;221.30;;;68.07;;
42702;SDS011;28341;52.064;4.920;2022-12-01T09:08:30;234.73;;;70.57;;
42702;SDS011;28341;52.064;4.920;2022-12-01T09:10:35;237.40;;;71.00;;
42702;SDS011;28341;52.064;4.920;2022-12-01T09:12:39;230.68;;;68.90;;
42702;SDS011;28341;52.064;4.920;2022-12-01T09:14:44;218.40;;;71.82;;
42702;SDS011;28341;52.064;4.920;2022-12-01T09:16:49;211.82;;;67.53;;
42702;SDS011;28341;52.064;4.920;2022-12-01T09:18:54;230.95;;;69.97;;
42702;SDS011;28341;52.064;4.920;2022-12-01T09:20:58;193.02;;;64.13;;
42702;SDS011;28341;52.064;4.920;2022-12-01T09:23:06;210.20;;;68.53;;
42702;SDS011;28341;52.064;4.920;2022-12-01T09:25:10;206.93;;;66.40;;
42702;SDS011;28341;52.064;4.920;2022-12-01T09:27:14;207.52;;;67.28;;
42702;SDS011;28341;52.064;4.920;2022-12-01T09:29:19;205.05;;;64.50;;
42702;SDS011;28341;52.064;4.920;2022-12-01T09:31:23;202.38;;;63.38;;
42702;SDS011;28341;52.064;4.920;2022-12-01T09:33:28;200.85;;;66.68;;
42702;SDS011;28341;52.064;4.920;2022-12-01T09:35:33;208.20;;;67.63;;
42702;SDS011;28341;52.064;4.920;2022-12-01T09:37:37;200.32;;;66.78;;
42702;SDS011;28341;52.064;4.920;2022-12-01T09:39:44;205.80;;;68.43;;
42702;SDS011;28341;52.064;4.920;2022-12-01T09:41:49;202.50;;;65.25;;
42702;SDS011;28341;52.064;4.920;2022-12-01T09:43:57;198.32;;;65.63;;
42702;SDS011;28341;52.064;4.920;2022-12-01T09:46:05;204.13;;;67.63;;
42702;SDS011;28341;52.064;4.920;2022-12-01T09:48:16;197.48;;;66.78;;
42702;SDS011;28341;52.064;4.920;2022-12-01T09:50:28;207.20;;;69.68;;
42702;SDS011;28341;52.064;4.920;2022-12-01T09:52:37;211.05;;;70.95;;
42702;SDS011;28341;52.064;4.920;2022-12-01T09:54:47;210.45;;;70.45;;
42702;SDS011;28341;52.064;4.920;2022-12-01T09:56:52;224.52;;;72.30;;
42702;SDS011;28341;52.064;4.920;2022-12-01T09:59:00;214.60;;;70.47;;
42702;SDS011;28341;52.064;4.920;2022-12-01T10:01:09;220.40;;;71.82;;
42702;SDS011;28341;52.064;4.920;2022-12-01T10:03:20;192.20;;;70.40;;
42702;SDS011;28341;52.064;4.920;2022-12-01T10:05:35;212.88;;;71.10;;
42702;SDS011;28341;52.064;4.920;2022-12-01T10:07:46;220.47;;;71.57;;
42702;SDS011;28341;52.064;4.920;2022-12-01T10:09:57;220.57;;;72.25;;
42702;SDS011;28341;52.064;4.920;2022-12-01T10:12:06;209.20;;;72.25;;
42702;SDS011;28341;52.064;4.920;2022-12-01T10:14:18;224.40;;;72.85;;
42702;SDS011;28341;52.064;4.920;2022-12-01T10:16:22;221.85;;;73.72;;
42702;SDS011;28341;52.064;4.920;2022-12-01T10:18:35;222.90;;;72.20;;
42702;SDS011;28341;52.064;4.920;2022-12-01T10:20:50;202.93;;;68.78;;
42702;SDS011;28341;52.064;4.920;2022-12-01T10:23:06;218.23;;;72.50;;
42702;SDS011;28341;52.064;4.920;2022-12-01T10:25:22;204.07;;;69.10;;
42702;SDS011;28341;52.064;4.920;2022-12-01T10:27:32;203.38;;;70.60;;
42702;SDS011;28341;52.064;4.920;2022-12-01T10:29:46;206.15;;;71.97;;
42702;SDS011;28341;52.064;4.920;2022-12-01T10:31:55;192.65;;;69.72;;
42702;SDS011;28341;52.064;4.920;2022-12-01T10:34:03;202.02;;;72.03;;
42702;SDS011;28341;52.064;4.920;2022-12-01T10:36:10;193.48;;;68.35;;
42702;SDS011;28341;52.064;4.920;2022-12-01T10:38:18;176.52;;;66.78;;
42702;SDS011;28341;52.064;4.920;2022-12-01T10:40:30;173.40;;;67.10;;
42702;SDS011;28341;52.064;4.920;2022-12-01T10:42:35;176.93;;;68.85;;
42702;SDS011;28341;52.064;4.920;2022-12-01T10:44:43;191.77;;;68.15;;
42702;SDS011;28341;52.064;4.920;2022-12-01T10:46:49;145.95;;;64.63;;
42702;SDS011;28341;52.064;4.920;2022-12-01T10:48:56;143.57;;;61.92;;
42702;SDS011;28341;52.064;4.920;2022-12-01T10:51:13;138.02;;;59.00;;
42702;SDS011;28341;52.064;4.920;2022-12-01T10:53:30;146.90;;;63.25;;
42702;SDS011;28341;52.064;4.920;2022-12-01T10:55:38;138.52;;;59.28;;
42702;SDS011;28341;52.064;4.920;2022-12-01T10:57:43;127.47;;;57.13;;
42702;SDS011;28341;52.064;4.920;2022-12-01T10:59:49;123.03;;;56.15;;
42702;SDS011;28341;52.064;4.920;2022-12-01T11:01:55;122.05;;;55.65;;
42702;SDS011;28341;52.064;4.920;2022-12-01T11:04:02;117.30;;;55.17;;
42702;SDS011;28341;52.064;4.920;2022-12-01T11:06:10;110.40;;;54.60;;
42702;SDS011;28341;52.064;4.920;2022-12-01T11:08:19;105.88;;;54.67;;
42702;SDS011;28341;52.064;4.920;2022-12-01T11:10:27;102.10;;;51.17;;
42702;SDS011;28341;52.064;4.920;2022-12-01T11:12:36;104.43;;;50.47;;
42702;SDS011;28341;52.064;4.920;2022-12-01T11:14:41;101.28;;;49.53;;
42702;SDS011;28341;52.064;4.920;2022-12-01T11:16:49;98.43;;;48.80;;
42702;SDS011;28341;52.064;4.920;2022-12-01T11:18:57;100.03;;;50.78;;
42702;SDS011;28341;52.064;4.920;2022-12-01T11:21:12;95.55;;;49.20;;
42702;SDS011;28341;52.064;4.920;2022-12-01T11:23:25;99.22;;;49.85;;
42702;SDS011;28341;52.064;4.920;2022-12-01T11:25:30;93.30;;;47.60;;
42702;SDS011;28341;52.064;4.920;2022-12-01T11:27:43;93.70;;;48.28;;
42702;SDS011;28341;52.064;4.920;2022-12-01T11:29:53;101.25;;;50.05;;
42702;SDS011;28341;52.064;4.920;2022-12-01T11:31:59;96.72;;;48.90;;
42702;SDS011;28341;52.064;4.920;2022-12-01T11:34:06;97.78;;;48.42;;
42702;SDS011;28341;52.064;4.920;2022-12-01T11:36:21;90.03;;;47.97;;
42702;SDS011;28341;52.064;4.920;2022-12-01T11:38:30;94.78;;;46.58;;
42702;SDS011;28341;52.064;4.920;2022-12-01T11:40:37;93.68;;;46.33;;
42702;SDS011;28341;52.064;4.920;2022-12-01T11:42:57;88.80;;;46.00;;
42702;SDS011;28341;52.064;4.920;2022-12-01T11:45:05;84.93;;;44.13;;
42702;SDS011;28341;52.064;4.920;2022-12-01T11:47:27;84.30;;;44.72;;
42702;SDS011;28341;52.064;4.920;2022-12-01T11:49:33;82.07;;;44.05;;
42702;SDS011;28341;52.064;4.920;2022-12-01T11:51:44;86.95;;;45.28;;
42702;SDS011;28341;52.064;4.920;2022-12-01T11:53:48;75.72;;;42.05;;
42702;SDS011;28341;52.064;4.920;2022-12-01T11:56:14;80.03;;;42.58;;
42702;SDS011;28341;52.064;4.920;2022-12-01T11:58:25;74.45;;;40.03;;
42702;SDS011;28341;52.064;4.920;2022-12-01T12:00:41;71.93;;;39.47;;
42702;SDS011;28341;52.064;4.920;2022-12-01T12:08:02;82.47;;;43.35;;
42702;SDS011;28341;52.064;4.920;2022-12-01T12:10:16;73.72;;;40.22;;
42702;SDS011;28341;52.064;4.920;2022-12-01T12:12:34;78.30;;;42.17;;
42702;SDS011;28341;52.064;4.920;2022-12-01T12:14:53;77.10;;;41.95;;
42702;SDS011;28341;52.064;4.920;2022-12-01T12:17:10;75.05;;;41.53;;
42702;SDS011;28341;52.064;4.920;2022-12-01T12:21:56;77.70;;;39.72;;
42702;SDS011;28341;52.064;4.920;2022-12-01T12:24:19;78.93;;;41.08;;
42702;SDS011;28341;52.064;4.920;2022-12-01T12:26:36;78.27;;;40.00;;
42702;SDS011;28341;52.064;4.920;2022-12-01T12:28:59;75.82;;;41.50;;
42702;SDS011;28341;52.064;4.920;2022-12-01T12:31:24;73.68;;;38.95;;
42702;SDS011;28341;52.064;4.920;2022-12-01T12:36:17;73.30;;;42.10;;